sensor_id;sensor_type;location;lat;lon;timestamp;P1;durP1;ratioP1;P2;durP2;ratioP2
28774;SDS011;15926;51.348;6.596;2024-03-22T00:01:52;36.38;;;19.40;;
28774;SDS011;15926;51.348;6.596;2024-03-22T00:04:19;38.00;;;18.88;;
28774;SDS011;15926;51.348;6.596;2024-03-22T00:06:45;31.92;;;17.17;;
28774;SDS011;15926;51.348;6.596;2024-03-22T00:09:12;34.03;;;17.48;;
28774;SDS011;15926;51.348;6.596;2024-03-22T00:11:41;33.35;;;18.10;;
28774;SDS011;15926;51.348;6.596;2024-03-22T00:14:08;31.38;;;17.48;;
28774;SDS011;15926;51.348;6.596;2024-03-22T00:16:34;36.03;;;17.83;;
28774;SDS011;15926;51.348;6.596;2024-03-22T00:19:00;34.72;;;18.05;;
28774;SDS011;15926;51.348;6.596;2024-03-22T00:21:27;34.17;;;19.17;;
28774;SDS011;15926;51.348;6.596;2024-03-22T00:23:53;31.77;;;17.77;;
28774;SDS011;15926;51.348;6.596;2024-03-22T00:26:19;35.35;;;18.38;;
28774;SDS011;15926;51.348;6.596;2024-03-22T00:28:45;35.58;;;19.38;;
28774;SDS011;15926;51.348;6.596;2024-03-22T00:31:11;33.25;;;17.42;;
28774;SDS011;15926;51.348;6.596;2024-03-22T00:33:37;34.88;;;17.98;;
28774;SDS011;15926;51.348;6.596;2024-03-22T00:36:03;36.03;;;17.70;;
28774;SDS011;15926;51.348;6.596;2024-03-22T00:38:29;30.27;;;16.92;;
28774;SDS011;15926;51.348;6.596;2024-03-22T00:40:55;37.20;;;18.02;;
28774;SDS011;15926;51.348;6.596;2024-03-22T00:43:21;36.45;;;18.60;;
28774;SDS011;15926;51.348;6.596;2024-03-22T00:45:47;33.50;;;17.13;;
28774;SDS011;15926;51.348;6.596;2024-03-22T00:48:13;33.88;;;17.42;;
28774;SDS011;15926;51.348;6.596;2024-03-22T00:50:39;33.88;;;18.33;;
28774;SDS011;15926;51.348;6.596;2024-03-22T00:53:05;34.80;;;17.35;;
28774;SDS011;15926;51.348;6.596;2024-03-22T00:55:32;32.67;;;17.52;;
28774;SDS011;15926;51.348;6.596;2024-03-22T00:57:58;36.05;;;16.88;;
28774;SDS011;15926;51.348;6.596;2024-03-22T01:00:24;34.60;;;17.05;;
28774;SDS011;15926;51.348;6.596;2024-03-22T01:02:50;35.97;;;18.85;;
28774;SDS011;15926;51.348;6.596;2024-03-22T01:05:17;36.83;;;17.83;;
28774;SDS011;15926;51.348;6.596;2024-03-22T01:07:43;34.83;;;17.58;;
28774;SDS011;15926;51.348;6.596;2024-03-22T01:10:09;33.08;;;16.83;;
28774;SDS011;15926;51.348;6.596;2024-03-22T01:12:35;34.08;;;17.50;;
28774;SDS011;15926;51.348;6.596;2024-03-22T01:15:01;30.42;;;16.67;;
28774;SDS011;15926;51.348;6.596;2024-03-22T01:17:28;36.40;;;16.77;;
28774;SDS011;15926;51.348;6.596;2024-03-22T01:19:54;37.28;;;18.00;;
28774;SDS011;15926;51.348;6.596;2024-03-22T01:22:20;38.15;;;18.40;;
28774;SDS011;15926;51.348;6.596;2024-03-22T01:24:46;30.08;;;17.10;;
28774;SDS011;15926;51.348;6.596;2024-03-22T01:27:12;39.17;;;18.73;;
28774;SDS011;15926;51.348;6.596;2024-03-22T01:29:38;32.58;;;17.40;;
28774;SDS011;15926;51.348;6.596;2024-03-22T01:32:04;40.80;;;20.27;;
28774;SDS011;15926;51.348;6.596;2024-03-22T01:34:30;35.58;;;18.02;;
28774;SDS011;15926;51.348;6.596;2024-03-22T01:36:56;36.83;;;17.48;;
28774;SDS011;15926;51.348;6.596;2024-03-22T01:39:22;36.35;;;17.60;;
28774;SDS011;15926;51.348;6.596;2024-03-22T01:41:49;41.47;;;18.17;;
28774;SDS011;15926;51.348;6.596;2024-03-22T01:44:15;35.78;;;18.13;;
28774;SDS011;15926;51.348;6.596;2024-03-22T01:46:42;35.58;;;17.13;;
28774;SDS011;15926;51.348;6.596;2024-03-22T01:49:09;37.78;;;18.20;;
28774;SDS011;15926;51.348;6.596;2024-03-22T01:51:35;34.45;;;17.95;;
28774;SDS011;15926;51.348;6.596;2024-03-22T01:54:01;40.92;;;19.73;;
28774;SDS011;15926;51.348;6.596;2024-03-22T01:56:28;38.78;;;18.15;;
28774;SDS011;15926;51.348;6.596;2024-03-22T01:58:54;35.35;;;17.40;;
28774;SDS011;15926;51.348;6.596;2024-03-22T02:01:20;39.28;;;19.00;;
28774;SDS011;15926;51.348;6.596;2024-03-22T02:03:46;38.13;;;18.92;;
28774;SDS011;15926;51.348;6.596;2024-03-22T02:06:12;38.35;;;18.88;;
28774;SDS011;15926;51.348;6.596;2024-03-22T02:08:39;37.15;;;18.23;;
28774;SDS011;15926;51.348;6.596;2024-03-22T02:11:07;41.25;;;19.80;;
28774;SDS011;15926;51.348;6.596;2024-03-22T02:13:33;39.90;;;18.90;;
28774;SDS011;15926;51.348;6.596;2024-03-22T02:15:59;40.50;;;19.73;;
28774;SDS011;15926;51.348;6.596;2024-03-22T02:18:28;44.20;;;18.35;;
28774;SDS011;15926;51.348;6.596;2024-03-22T02:20:54;40.67;;;19.13;;
28774;SDS011;15926;51.348;6.596;2024-03-22T02:23:30;41.88;;;19.90;;
28774;SDS011;15926;51.348;6.596;2024-03-22T02:25:56;35.42;;;17.85;;
28774;SDS011;15926;51.348;6.596;2024-03-22T02:28:22;38.58;;;19.50;;
28774;SDS011;15926;51.348;6.596;2024-03-22T02:30:48;37.33;;;18.02;;
28774;SDS011;15926;51.348;6.596;2024-03-22T02:33:14;37.28;;;17.77;;
28774;SDS011;15926;51.348;6.596;2024-03-22T02:35:40;42.08;;;18.65;;
28774;SDS011;15926;51.348;6.596;2024-03-22T02:38:06;41.92;;;18.38;;
28774;SDS011;15926;51.348;6.596;2024-03-22T02:40:32;33.83;;;17.98;;
28774;SDS011;15926;51.348;6.596;2024-03-22T02:42:58;41.60;;;19.75;;
28774;SDS011;15926;51.348;6.596;2024-03-22T02:45:24;42.75;;;19.13;;
28774;SDS011;15926;51.348;6.596;2024-03-22T02:47:50;39.50;;;19.13;;
28774;SDS011;15926;51.348;6.596;2024-03-22T02:50:16;39.60;;;19.70;;
28774;SDS011;15926;51.348;6.596;2024-03-22T02:52:42;44.28;;;19.38;;
28774;SDS011;15926;51.348;6.596;2024-03-22T02:55:08;43.40;;;19.88;;
28774;SDS011;15926;51.348;6.596;2024-03-22T02:57:34;39.15;;;19.27;;
28774;SDS011;15926;51.348;6.596;2024-03-22T03:00:00;38.22;;;19.05;;
28774;SDS011;15926;51.348;6.596;2024-03-22T03:02:26;45.28;;;20.27;;
28774;SDS011;15926;51.348;6.596;2024-03-22T03:04:52;40.75;;;19.60;;
28774;SDS011;15926;51.348;6.596;2024-03-22T03:07:18;46.72;;;19.20;;
28774;SDS011;15926;51.348;6.596;2024-03-22T03:09:44;33.10;;;17.00;;
28774;SDS011;15926;51.348;6.596;2024-03-22T03:12:10;43.20;;;20.52;;
28774;SDS011;15926;51.348;6.596;2024-03-22T03:14:36;39.15;;;19.35;;
28774;SDS011;15926;51.348;6.596;2024-03-22T03:17:02;41.65;;;19.17;;
28774;SDS011;15926;51.348;6.596;2024-03-22T03:19:28;35.38;;;18.48;;
28774;SDS011;15926;51.348;6.596;2024-03-22T03:21:54;39.40;;;19.20;;
28774;SDS011;15926;51.348;6.596;2024-03-22T03:24:20;43.85;;;19.52;;
28774;SDS011;15926;51.348;6.596;2024-03-22T03:26:46;40.63;;;20.83;;
28774;SDS011;15926;51.348;6.596;2024-03-22T03:29:12;50.63;;;20.48;;
28774;SDS011;15926;51.348;6.596;2024-03-22T03:31:38;39.53;;;20.23;;
28774;SDS011;15926;51.348;6.596;2024-03-22T03:34:04;41.50;;;20.33;;
28774;SDS011;15926;51.348;6.596;2024-03-22T03:36:30;46.47;;;21.05;;
28774;SDS011;15926;51.348;6.596;2024-03-22T03:38:56;40.42;;;19.63;;
28774;SDS011;15926;51.348;6.596;2024-03-22T03:41:22;37.53;;;19.25;;
28774;SDS011;15926;51.348;6.596;2024-03-22T03:43:48;44.78;;;19.70;;
28774;SDS011;15926;51.348;6.596;2024-03-22T03:46:14;40.47;;;20.27;;
28774;SDS011;15926;51.348;6.596;2024-03-22T03:48:40;44.53;;;19.27;;
28774;SDS011;15926;51.348;6.596;2024-03-22T03:51:06;41.40;;;20.45;;
28774;SDS011;15926;51.348;6.596;2024-03-22T03:53:32;47.00;;;21.83;;
28774;SDS011;15926;51.348;6.596;2024-03-22T03:55:58;44.90;;;20.73;;
28774;SDS011;15926;51.348;6.596;2024-03-22T03:58:24;41.15;;;21.48;;
28774;SDS011;15926;51.348;6.596;2024-03-22T04:00:50;39.55;;;20.08;;
28774;SDS011;15926;51.348;6.596;2024-03-22T04:03:16;45.67;;;21.92;;
28774;SDS011;15926;51.348;6.596;2024-03-22T04:05:42;41.83;;;20.75;;
28774;SDS011;15926;51.348;6.596;2024-03-22T04:08:08;38.45;;;20.08;;
28774;SDS011;15926;51.348;6.596;2024-03-22T04:10:34;42.85;;;20.40;;
28774;SDS011;15926;51.348;6.596;2024-03-22T04:13:00;44.65;;;21.85;;
28774;SDS011;15926;51.348;6.596;2024-03-22T04:15:26;41.13;;;20.35;;
28774;SDS011;15926;51.348;6.596;2024-03-22T04:17:52;44.60;;;20.73;;
28774;SDS011;15926;51.348;6.596;2024-03-22T04:20:18;43.63;;;21.15;;
28774;SDS011;15926;51.348;6.596;2024-03-22T04:22:44;43.60;;;21.17;;
28774;SDS011;15926;51.348;6.596;2024-03-22T04:25:10;46.08;;;20.80;;
28774;SDS011;15926;51.348;6.596;2024-03-22T04:27:36;46.22;;;22.98;;
28774;SDS011;15926;51.348;6.596;2024-03-22T04:30:02;43.85;;;21.33;;
28774;SDS011;15926;51.348;6.596;2024-03-22T04:32:29;40.95;;;21.08;;
28774;SDS011;15926;51.348;6.596;2024-03-22T04:34:55;40.80;;;21.80;;
28774;SDS011;15926;51.348;6.596;2024-03-22T04:37:21;49.78;;;22.58;;
28774;SDS011;15926;51.348;6.596;2024-03-22T04:39:47;46.28;;;22.15;;
28774;SDS011;15926;51.348;6.596;2024-03-22T04:42:13;43.28;;;24.40;;
28774;SDS011;15926;51.348;6.596;2024-03-22T04:44:39;35.13;;;20.50;;
28774;SDS011;15926;51.348;6.596;2024-03-22T04:47:05;39.22;;;22.15;;
28774;SDS011;15926;51.348;6.596;2024-03-22T04:49:31;41.03;;;21.45;;
28774;SDS011;15926;51.348;6.596;2024-03-22T04:51:57;46.03;;;21.25;;
28774;SDS011;15926;51.348;6.596;2024-03-22T04:54:23;33.33;;;19.75;;
28774;SDS011;15926;51.348;6.596;2024-03-22T04:56:49;38.15;;;20.90;;
28774;SDS011;15926;51.348;6.596;2024-03-22T04:59:15;40.55;;;20.15;;
28774;SDS011;15926;51.348;6.596;2024-03-22T05:01:42;37.95;;;21.85;;
28774;SDS011;15926;51.348;6.596;2024-03-22T05:04:09;38.72;;;20.05;;
28774;SDS011;15926;51.348;6.596;2024-03-22T05:06:35;34.67;;;18.40;;
28774;SDS011;15926;51.348;6.596;2024-03-22T05:09:01;31.90;;;18.17;;
28774;SDS011;15926;51.348;6.596;2024-03-22T05:11:28;36.33;;;18.73;;
28774;SDS011;15926;51.348;6.596;2024-03-22T05:13:55;31.45;;;17.35;;
28774;SDS011;15926;51.348;6.596;2024-03-22T05:16:21;31.33;;;17.23;;
28774;SDS011;15926;51.348;6.596;2024-03-22T05:18:49;30.65;;;17.23;;
28774;SDS011;15926;51.348;6.596;2024-03-22T05:21:15;34.15;;;17.63;;
28774;SDS011;15926;51.348;6.596;2024-03-22T05:23:41;32.88;;;17.58;;
28774;SDS011;15926;51.348;6.596;2024-03-22T05:26:07;30.50;;;17.58;;
28774;SDS011;15926;51.348;6.596;2024-03-22T05:28:33;31.35;;;17.35;;
28774;SDS011;15926;51.348;6.596;2024-03-22T05:30:59;33.97;;;17.77;;
28774;SDS011;15926;51.348;6.596;2024-03-22T05:33:25;26.83;;;17.60;;
28774;SDS011;15926;51.348;6.596;2024-03-22T05:35:51;31.20;;;16.55;;
28774;SDS011;15926;51.348;6.596;2024-03-22T05:38:17;32.47;;;17.13;;
28774;SDS011;15926;51.348;6.596;2024-03-22T05:40:43;29.95;;;17.60;;
28774;SDS011;15926;51.348;6.596;2024-03-22T05:43:12;31.70;;;16.67;;
28774;SDS011;15926;51.348;6.596;2024-03-22T05:45:38;27.50;;;15.98;;
28774;SDS011;15926;51.348;6.596;2024-03-22T05:48:04;27.45;;;16.77;;
28774;SDS011;15926;51.348;6.596;2024-03-22T05:50:30;33.22;;;16.60;;
28774;SDS011;15926;51.348;6.596;2024-03-22T05:52:57;33.70;;;17.13;;
28774;SDS011;15926;51.348;6.596;2024-03-22T05:55:23;29.05;;;16.33;;
28774;SDS011;15926;51.348;6.596;2024-03-22T05:57:52;29.73;;;16.73;;
28774;SDS011;15926;51.348;6.596;2024-03-22T06:00:18;27.00;;;15.43;;
28774;SDS011;15926;51.348;6.596;2024-03-22T06:02:44;30.40;;;16.50;;
28774;SDS011;15926;51.348;6.596;2024-03-22T06:05:10;29.55;;;16.33;;
28774;SDS011;15926;51.348;6.596;2024-03-22T06:07:36;29.23;;;16.45;;
28774;SDS011;15926;51.348;6.596;2024-03-22T06:10:07;23.75;;;15.13;;
28774;SDS011;15926;51.348;6.596;2024-03-22T06:12:34;32.75;;;16.58;;
28774;SDS011;15926;51.348;6.596;2024-03-22T06:15:01;28.27;;;16.13;;
28774;SDS011;15926;51.348;6.596;2024-03-22T06:17:31;29.77;;;16.90;;
28774;SDS011;15926;51.348;6.596;2024-03-22T06:19:57;30.95;;;16.08;;
28774;SDS011;15926;51.348;6.596;2024-03-22T06:22:24;25.17;;;15.10;;
28774;SDS011;15926;51.348;6.596;2024-03-22T06:24:50;26.13;;;16.15;;
28774;SDS011;15926;51.348;6.596;2024-03-22T06:27:16;26.08;;;16.25;;
28774;SDS011;15926;51.348;6.596;2024-03-22T06:29:42;23.85;;;16.10;;
28774;SDS011;15926;51.348;6.596;2024-03-22T06:32:08;27.67;;;15.75;;
28774;SDS011;15926;51.348;6.596;2024-03-22T06:34:34;24.75;;;14.57;;
28774;SDS011;15926;51.348;6.596;2024-03-22T06:37:00;25.23;;;15.43;;
28774;SDS011;15926;51.348;6.596;2024-03-22T06:39:27;21.85;;;14.45;;
28774;SDS011;15926;51.348;6.596;2024-03-22T06:41:53;26.63;;;15.02;;
28774;SDS011;15926;51.348;6.596;2024-03-22T06:44:19;26.35;;;15.98;;
28774;SDS011;15926;51.348;6.596;2024-03-22T06:46:45;29.45;;;15.80;;
28774;SDS011;15926;51.348;6.596;2024-03-22T06:49:11;27.55;;;16.05;;
28774;SDS011;15926;51.348;6.596;2024-03-22T06:51:36;23.67;;;15.32;;
28774;SDS011;15926;51.348;6.596;2024-03-22T06:54:03;29.83;;;15.55;;
28774;SDS011;15926;51.348;6.596;2024-03-22T06:56:29;25.80;;;14.52;;
28774;SDS011;15926;51.348;6.596;2024-03-22T06:58:55;26.55;;;15.38;;
28774;SDS011;15926;51.348;6.596;2024-03-22T07:01:21;23.58;;;14.88;;
28774;SDS011;15926;51.348;6.596;2024-03-22T07:03:47;23.02;;;14.23;;
28774;SDS011;15926;51.348;6.596;2024-03-22T07:06:13;24.60;;;14.75;;
28774;SDS011;15926;51.348;6.596;2024-03-22T07:08:40;23.13;;;14.48;;
28774;SDS011;15926;51.348;6.596;2024-03-22T07:11:06;20.58;;;14.00;;
28774;SDS011;15926;51.348;6.596;2024-03-22T07:13:33;21.63;;;12.95;;
28774;SDS011;15926;51.348;6.596;2024-03-22T07:15:59;23.10;;;13.55;;
28774;SDS011;15926;51.348;6.596;2024-03-22T07:18:25;20.55;;;14.13;;
28774;SDS011;15926;51.348;6.596;2024-03-22T07:20:51;19.48;;;12.52;;
28774;SDS011;15926;51.348;6.596;2024-03-22T07:23:17;21.83;;;13.48;;
28774;SDS011;15926;51.348;6.596;2024-03-22T07:25:43;23.05;;;13.38;;
28774;SDS011;15926;51.348;6.596;2024-03-22T07:28:11;25.05;;;13.98;;
28774;SDS011;15926;51.348;6.596;2024-03-22T07:30:37;23.67;;;13.05;;
28774;SDS011;15926;51.348;6.596;2024-03-22T07:33:03;25.23;;;13.35;;
28774;SDS011;15926;51.348;6.596;2024-03-22T07:35:29;23.55;;;13.10;;
28774;SDS011;15926;51.348;6.596;2024-03-22T07:37:56;20.50;;;13.07;;
28774;SDS011;15926;51.348;6.596;2024-03-22T07:40:22;25.52;;;13.15;;
28774;SDS011;15926;51.348;6.596;2024-03-22T07:42:48;21.55;;;12.90;;
28774;SDS011;15926;51.348;6.596;2024-03-22T07:45:14;20.08;;;13.60;;
28774;SDS011;15926;51.348;6.596;2024-03-22T07:47:40;21.88;;;13.43;;
28774;SDS011;15926;51.348;6.596;2024-03-22T07:50:07;17.73;;;11.98;;
28774;SDS011;15926;51.348;6.596;2024-03-22T07:52:33;17.95;;;13.07;;
28774;SDS011;15926;51.348;6.596;2024-03-22T07:54:59;19.58;;;12.23;;
28774;SDS011;15926;51.348;6.596;2024-03-22T07:57:27;17.15;;;11.95;;
28774;SDS011;15926;51.348;6.596;2024-03-22T07:59:56;22.60;;;13.15;;
28774;SDS011;15926;51.348;6.596;2024-03-22T08:02:22;21.50;;;12.43;;
28774;SDS011;15926;51.348;6.596;2024-03-22T08:04:48;22.88;;;14.23;;
28774;SDS011;15926;51.348;6.596;2024-03-22T08:07:14;20.58;;;12.48;;
28774;SDS011;15926;51.348;6.596;2024-03-22T08:09:40;23.00;;;12.85;;
28774;SDS011;15926;51.348;6.596;2024-03-22T08:12:06;22.52;;;13.50;;
28774;SDS011;15926;51.348;6.596;2024-03-22T08:14:33;20.48;;;12.18;;
28774;SDS011;15926;51.348;6.596;2024-03-22T08:16:59;21.27;;;12.68;;
28774;SDS011;15926;51.348;6.596;2024-03-22T08:19:25;19.70;;;12.13;;
28774;SDS011;15926;51.348;6.596;2024-03-22T08:21:51;22.20;;;12.82;;
28774;SDS011;15926;51.348;6.596;2024-03-22T08:24:18;21.73;;;12.48;;
28774;SDS011;15926;51.348;6.596;2024-03-22T08:26:44;18.40;;;12.27;;
28774;SDS011;15926;51.348;6.596;2024-03-22T08:29:12;18.17;;;12.25;;
28774;SDS011;15926;51.348;6.596;2024-03-22T08:31:39;18.55;;;11.13;;
28774;SDS011;15926;51.348;6.596;2024-03-22T08:34:05;17.23;;;10.65;;
28774;SDS011;15926;51.348;6.596;2024-03-22T08:36:31;20.65;;;10.30;;
28774;SDS011;15926;51.348;6.596;2024-03-22T08:38:57;13.85;;;10.13;;
28774;SDS011;15926;51.348;6.596;2024-03-22T08:41:23;15.90;;;10.88;;
28774;SDS011;15926;51.348;6.596;2024-03-22T08:43:49;17.38;;;10.52;;
28774;SDS011;15926;51.348;6.596;2024-03-22T08:46:15;16.05;;;10.20;;
28774;SDS011;15926;51.348;6.596;2024-03-22T08:48:41;16.52;;;10.20;;
28774;SDS011;15926;51.348;6.596;2024-03-22T08:51:07;14.10;;;9.63;;
28774;SDS011;15926;51.348;6.596;2024-03-22T08:53:33;14.73;;;9.45;;
28774;SDS011;15926;51.348;6.596;2024-03-22T08:56:00;15.07;;;8.13;;
28774;SDS011;15926;51.348;6.596;2024-03-22T08:58:26;15.25;;;8.75;;
28774;SDS011;15926;51.348;6.596;2024-03-22T09:00:52;14.23;;;8.40;;
28774;SDS011;15926;51.348;6.596;2024-03-22T09:03:18;14.43;;;8.32;;
28774;SDS011;15926;51.348;6.596;2024-03-22T09:05:46;12.02;;;8.68;;
28774;SDS011;15926;51.348;6.596;2024-03-22T09:08:12;15.73;;;9.45;;
28774;SDS011;15926;51.348;6.596;2024-03-22T09:10:38;11.93;;;8.88;;
28774;SDS011;15926;51.348;6.596;2024-03-22T09:13:04;9.32;;;7.68;;
28774;SDS011;15926;51.348;6.596;2024-03-22T09:15:30;13.07;;;7.32;;
28774;SDS011;15926;51.348;6.596;2024-03-22T09:17:56;12.20;;;8.43;;
28774;SDS011;15926;51.348;6.596;2024-03-22T09:20:22;9.18;;;8.00;;
28774;SDS011;15926;51.348;6.596;2024-03-22T09:22:48;14.73;;;7.97;;
28774;SDS011;15926;51.348;6.596;2024-03-22T09:25:14;10.60;;;8.15;;
28774;SDS011;15926;51.348;6.596;2024-03-22T09:27:40;15.02;;;9.07;;
28774;SDS011;15926;51.348;6.596;2024-03-22T09:30:07;12.40;;;7.72;;
28774;SDS011;15926;51.348;6.596;2024-03-22T09:32:34;10.40;;;7.88;;
28774;SDS011;15926;51.348;6.596;2024-03-22T09:35:00;13.85;;;8.48;;
28774;SDS011;15926;51.348;6.596;2024-03-22T09:37:27;13.40;;;8.13;;
28774;SDS011;15926;51.348;6.596;2024-03-22T09:39:53;13.40;;;8.63;;
28774;SDS011;15926;51.348;6.596;2024-03-22T09:42:19;12.48;;;8.73;;
28774;SDS011;15926;51.348;6.596;2024-03-22T09:47:15;13.15;;;8.10;;
28774;SDS011;15926;51.348;6.596;2024-03-22T09:49:42;12.27;;;8.25;;
28774;SDS011;15926;51.348;6.596;2024-03-22T09:52:11;13.10;;;7.93;;
28774;SDS011;15926;51.348;6.596;2024-03-22T09:54:38;10.82;;;6.68;;
28774;SDS011;15926;51.348;6.596;2024-03-22T09:57:05;13.00;;;7.72;;
28774;SDS011;15926;51.348;6.596;2024-03-22T09:59:32;15.43;;;8.05;;
28774;SDS011;15926;51.348;6.596;2024-03-22T10:01:58;12.10;;;7.88;;
28774;SDS011;15926;51.348;6.596;2024-03-22T10:04:25;14.18;;;7.90;;
28774;SDS011;15926;51.348;6.596;2024-03-22T10:06:51;8.85;;;6.88;;
28774;SDS011;15926;51.348;6.596;2024-03-22T10:09:17;10.68;;;7.13;;
28774;SDS011;15926;51.348;6.596;2024-03-22T10:11:43;10.05;;;7.45;;
28774;SDS011;15926;51.348;6.596;2024-03-22T10:14:09;12.00;;;7.47;;
28774;SDS011;15926;51.348;6.596;2024-03-22T10:16:36;10.43;;;7.07;;
28774;SDS011;15926;51.348;6.596;2024-03-22T10:19:02;10.90;;;7.18;;
28774;SDS011;15926;51.348;6.596;2024-03-22T10:21:28;14.52;;;7.70;;
28774;SDS011;15926;51.348;6.596;2024-03-22T10:23:54;11.63;;;7.15;;
28774;SDS011;15926;51.348;6.596;2024-03-22T10:26:20;10.55;;;7.28;;
28774;SDS011;15926;51.348;6.596;2024-03-22T10:28:46;9.18;;;7.40;;
28774;SDS011;15926;51.348;6.596;2024-03-22T10:31:13;9.15;;;6.25;;
28774;SDS011;15926;51.348;6.596;2024-03-22T10:33:42;9.57;;;7.00;;
28774;SDS011;15926;51.348;6.596;2024-03-22T10:36:10;12.80;;;7.38;;
28774;SDS011;15926;51.348;6.596;2024-03-22T10:38:36;12.30;;;7.53;;
28774;SDS011;15926;51.348;6.596;2024-03-22T10:41:04;9.18;;;6.93;;
28774;SDS011;15926;51.348;6.596;2024-03-22T10:43:30;16.02;;;6.85;;
28774;SDS011;15926;51.348;6.596;2024-03-22T10:45:56;11.23;;;7.40;;
28774;SDS011;15926;51.348;6.596;2024-03-22T10:48:26;11.35;;;7.70;;
28774;SDS011;15926;51.348;6.596;2024-03-22T10:50:54;11.20;;;7.38;;
28774;SDS011;15926;51.348;6.596;2024-03-22T10:53:23;11.93;;;6.97;;
28774;SDS011;15926;51.348;6.596;2024-03-22T10:55:49;15.43;;;7.25;;
28774;SDS011;15926;51.348;6.596;2024-03-22T10:58:17;9.77;;;7.05;;
28774;SDS011;15926;51.348;6.596;2024-03-22T11:00:43;8.93;;;7.25;;
28774;SDS011;15926;51.348;6.596;2024-03-22T11:03:09;9.88;;;7.40;;
28774;SDS011;15926;51.348;6.596;2024-03-22T11:05:45;8.85;;;6.88;;
28774;SDS011;15926;51.348;6.596;2024-03-22T11:08:11;12.85;;;7.18;;
28774;SDS011;15926;51.348;6.596;2024-03-22T11:10:38;10.93;;;7.32;;
28774;SDS011;15926;51.348;6.596;2024-03-22T11:13:04;11.32;;;7.32;;
28774;SDS011;15926;51.348;6.596;2024-03-22T11:15:32;9.68;;;6.95;;
28774;SDS011;15926;51.348;6.596;2024-03-22T11:17:58;13.50;;;6.55;;
28774;SDS011;15926;51.348;6.596;2024-03-22T11:20:24;8.27;;;6.55;;
28774;SDS011;15926;51.348;6.596;2024-03-22T11:22:51;11.10;;;6.10;;
28774;SDS011;15926;51.348;6.596;2024-03-22T11:25:17;9.63;;;6.90;;
28774;SDS011;15926;51.348;6.596;2024-03-22T11:27:44;10.43;;;6.32;;
28774;SDS011;15926;51.348;6.596;2024-03-22T11:30:10;10.82;;;6.75;;
28774;SDS011;15926;51.348;6.596;2024-03-22T11:32:36;10.65;;;6.95;;
28774;SDS011;15926;51.348;6.596;2024-03-22T11:35:10;9.88;;;6.97;;
28774;SDS011;15926;51.348;6.596;2024-03-22T11:37:36;10.55;;;6.32;;
28774;SDS011;15926;51.348;6.596;2024-03-22T11:40:02;9.90;;;7.10;;
28774;SDS011;15926;51.348;6.596;2024-03-22T11:42:30;10.25;;;7.35;;
28774;SDS011;15926;51.348;6.596;2024-03-22T11:44:57;7.75;;;6.63;;
28774;SDS011;15926;51.348;6.596;2024-03-22T11:47:23;11.13;;;7.43;;
28774;SDS011;15926;51.348;6.596;2024-03-22T11:49:50;8.38;;;7.03;;
28774;SDS011;15926;51.348;6.596;2024-03-22T11:52:16;15.50;;;7.78;;
28774;SDS011;15926;51.348;6.596;2024-03-22T11:54:41;10.57;;;7.03;;
28774;SDS011;15926;51.348;6.596;2024-03-22T11:57:10;10.88;;;7.00;;
28774;SDS011;15926;51.348;6.596;2024-03-22T12:00:00;7.47;;;6.68;;
28774;SDS011;15926;51.348;6.596;2024-03-22T12:02:26;11.10;;;7.75;;
28774;SDS011;15926;51.348;6.596;2024-03-22T12:04:52;10.35;;;7.80;;
28774;SDS011;15926;51.348;6.596;2024-03-22T12:07:18;10.98;;;7.45;;
28774;SDS011;15926;51.348;6.596;2024-03-22T12:09:44;11.55;;;8.20;;
28774;SDS011;15926;51.348;6.596;2024-03-22T12:12:11;10.18;;;7.43;;
28774;SDS011;15926;51.348;6.596;2024-03-22T12:14:40;10.88;;;8.15;;
28774;SDS011;15926;51.348;6.596;2024-03-22T12:17:06;10.45;;;7.45;;
28774;SDS011;15926;51.348;6.596;2024-03-22T12:19:33;12.40;;;9.02;;
28774;SDS011;15926;51.348;6.596;2024-03-22T12:21:59;9.10;;;7.63;;
28774;SDS011;15926;51.348;6.596;2024-03-22T12:24:25;11.63;;;8.93;;
28774;SDS011;15926;51.348;6.596;2024-03-22T12:26:52;13.57;;;9.32;;
28774;SDS011;15926;51.348;6.596;2024-03-22T12:29:18;14.40;;;9.38;;
28774;SDS011;15926;51.348;6.596;2024-03-22T12:31:45;15.15;;;9.05;;
28774;SDS011;15926;51.348;6.596;2024-03-22T12:34:12;11.70;;;8.80;;
28774;SDS011;15926;51.348;6.596;2024-03-22T12:36:38;14.77;;;9.23;;
28774;SDS011;15926;51.348;6.596;2024-03-22T12:39:04;13.35;;;8.48;;
28774;SDS011;15926;51.348;6.596;2024-03-22T12:41:31;12.25;;;9.35;;
28774;SDS011;15926;51.348;6.596;2024-03-22T12:43:58;13.73;;;8.82;;
28774;SDS011;15926;51.348;6.596;2024-03-22T12:46:24;12.43;;;8.77;;
28774;SDS011;15926;51.348;6.596;2024-03-22T12:48:50;14.80;;;10.10;;
28774;SDS011;15926;51.348;6.596;2024-03-22T12:51:16;13.25;;;8.80;;
28774;SDS011;15926;51.348;6.596;2024-03-22T12:53:42;12.57;;;8.73;;
28774;SDS011;15926;51.348;6.596;2024-03-22T12:56:08;15.57;;;9.75;;
28774;SDS011;15926;51.348;6.596;2024-03-22T12:58:36;13.95;;;9.48;;
28774;SDS011;15926;51.348;6.596;2024-03-22T13:01:02;12.13;;;9.02;;
28774;SDS011;15926;51.348;6.596;2024-03-22T13:03:28;12.88;;;9.23;;
28774;SDS011;15926;51.348;6.596;2024-03-22T13:05:54;13.93;;;10.38;;
28774;SDS011;15926;51.348;6.596;2024-03-22T13:08:20;14.18;;;8.88;;
28774;SDS011;15926;51.348;6.596;2024-03-22T13:10:46;12.23;;;9.00;;
28774;SDS011;15926;51.348;6.596;2024-03-22T13:13:13;9.13;;;7.60;;
28774;SDS011;15926;51.348;6.596;2024-03-22T13:15:41;10.68;;;7.95;;
28774;SDS011;15926;51.348;6.596;2024-03-22T13:18:07;13.70;;;8.60;;
28774;SDS011;15926;51.348;6.596;2024-03-22T13:20:34;10.45;;;8.18;;
28774;SDS011;15926;51.348;6.596;2024-03-22T13:23:00;12.73;;;8.77;;
28774;SDS011;15926;51.348;6.596;2024-03-22T13:25:26;13.85;;;8.65;;
28774;SDS011;15926;51.348;6.596;2024-03-22T13:27:52;11.88;;;8.55;;
28774;SDS011;15926;51.348;6.596;2024-03-22T13:30:19;14.30;;;9.95;;
28774;SDS011;15926;51.348;6.596;2024-03-22T13:32:45;11.00;;;8.63;;
28774;SDS011;15926;51.348;6.596;2024-03-22T13:35:11;12.35;;;8.52;;
28774;SDS011;15926;51.348;6.596;2024-03-22T13:37:37;11.68;;;9.30;;
28774;SDS011;15926;51.348;6.596;2024-03-22T13:40:03;9.98;;;8.75;;
28774;SDS011;15926;51.348;6.596;2024-03-22T13:42:29;11.68;;;9.43;;
28774;SDS011;15926;51.348;6.596;2024-03-22T13:44:55;15.02;;;9.68;;
28774;SDS011;15926;51.348;6.596;2024-03-22T13:47:24;14.45;;;9.60;;
28774;SDS011;15926;51.348;6.596;2024-03-22T13:49:51;12.68;;;9.95;;
28774;SDS011;15926;51.348;6.596;2024-03-22T13:52:17;10.73;;;9.63;;
28774;SDS011;15926;51.348;6.596;2024-03-22T13:54:45;16.33;;;10.35;;
28774;SDS011;15926;51.348;6.596;2024-03-22T13:57:11;11.25;;;9.52;;
28774;SDS011;15926;51.348;6.596;2024-03-22T13:59:38;15.98;;;10.77;;
28774;SDS011;15926;51.348;6.596;2024-03-22T14:02:05;11.60;;;9.38;;
28774;SDS011;15926;51.348;6.596;2024-03-22T14:04:32;12.23;;;10.13;;
28774;SDS011;15926;51.348;6.596;2024-03-22T14:06:58;14.95;;;10.05;;
28774;SDS011;15926;51.348;6.596;2024-03-22T14:09:26;15.18;;;10.95;;
28774;SDS011;15926;51.348;6.596;2024-03-22T14:11:52;16.77;;;11.45;;
28774;SDS011;15926;51.348;6.596;2024-03-22T14:14:18;14.57;;;10.77;;
28774;SDS011;15926;51.348;6.596;2024-03-22T14:16:44;16.58;;;11.98;;
28774;SDS011;15926;51.348;6.596;2024-03-22T14:19:10;15.90;;;11.98;;
28774;SDS011;15926;51.348;6.596;2024-03-22T14:21:36;20.42;;;12.40;;
28774;SDS011;15926;51.348;6.596;2024-03-22T14:24:03;16.83;;;12.00;;